Tampa, Florida
Traffic Map
Current Weather Conditions
Tampa, Florida
Scattered Clouds
Scattered Clouds
33°
Feels Like: 36°
Wind Chill: 33° Ceiling: Unl
Heat Index: 36° Visibility: 10mi
Dew Point: 22° Wind: 5mph
Humidity: 52% Direction: 200° (SSW)
Pressure: 30.1in Gusts: 0mph
Raw Report DataKTPA 011753Z 20004KT 10SM SCT048 33/22 A3010 RMK AO2 SLP191 T03280217 10333 20256 58012
Traffic Incident Summary
Active as of:
Severity:
Category:
InformationThere was an issue retrieving the traffic information for this location. Please try a different location or try again shortly.
Advertisements
Track Severe Weather on mobile